Time;durP1;ratioP1;P1;durP2;ratioP2;P2;SDS_P1;SDS_P2;PMS_P1;PMS_P2;Temp;Humidity;BMP_temperature;BMP_pressure;BME280_temperature;BME280_humidity;BME280_pressure;Samples;Min_cycle;Max_cycle;Signal;HPM_P1;HPM_P2
2023/05/01 00:00:42;;;;;;;29.75;17.33;;;;;;;;;;5114945;28;20051;-78
2023/05/01 00:03:08;;;;;;;31.33;17.50;;;;;;;;;;5115868;28;20369;-78
2023/05/01 00:05:34;;;;;;;28.20;15.80;;;;;;;;;;5115422;28;20118;-77
2023/05/01 00:08:00;;;;;;;25.33;15.48;;;;;;;;;;5115996;28;20016;-80
2023/05/01 00:10:25;;;;;;;24.13;15.98;;;;;;;;;;5116818;28;20076;-79
2023/05/01 00:12:51;;;;;;;29.08;16.15;;;;;;;;;;5114611;28;20031;-78
2023/05/01 00:15:17;;;;;;;27.93;16.17;;;;;;;;;;5116509;28;20028;-79
2023/05/01 00:17:42;;;;;;;30.10;16.20;;;;;;;;;;5116943;28;20100;-81
2023/05/01 00:20:08;;;;;;;35.80;16.37;;;;;;;;;;5115642;28;20031;-79
2023/05/01 00:22:34;;;;;;;30.90;16.80;;;;;;;;;;5115055;28;20080;-78
2023/05/01 00:25:01;;;;;;;28.73;16.43;;;;;;;;;;5114522;28;20027;-78
2023/05/01 00:27:26;;;;;;;29.77;17.57;;;;;;;;;;5114828;28;20059;-78
2023/05/01 00:29:52;;;;;;;32.00;16.73;;;;;;;;;;5115797;28;20031;-78
2023/05/01 00:32:17;;;;;;;34.17;17.07;;;;;;;;;;5114590;28;20034;-79
2023/05/01 00:34:44;;;;;;;32.13;17.47;;;;;;;;;;5114560;28;20036;-78
2023/05/01 00:37:10;;;;;;;30.00;18.47;;;;;;;;;;5115430;28;20030;-77
2023/05/01 00:39:36;;;;;;;37.00;18.80;;;;;;;;;;5113646;28;20019;-78
2023/05/01 00:42:02;;;;;;;45.43;18.40;;;;;;;;;;5114674;28;20588;-77
2023/05/01 00:44:29;;;;;;;33.27;18.33;;;;;;;;;;5113423;28;20115;-79
2023/05/01 00:46:57;;;;;;;32.80;18.30;;;;;;;;;;5113218;28;20052;-78
2023/05/01 00:49:22;;;;;;;33.57;19.83;;;;;;;;;;5114155;28;20024;-79
2023/05/01 00:51:52;;;;;;;31.47;18.97;;;;;;;;;;5115768;28;20023;-79
2023/05/01 00:54:18;;;;;;;39.47;20.67;;;;;;;;;;5114153;28;20046;-78
2023/05/01 00:56:46;;;;;;;35.23;20.77;;;;;;;;;;5113966;28;20032;-77
2023/05/01 00:59:13;;;;;;;38.43;20.70;;;;;;;;;;5113647;28;20035;-78
2023/05/01 01:01:41;;;;;;;35.37;19.83;;;;;;;;;;5114416;28;20548;-78
2023/05/01 01:04:07;;;;;;;35.47;20.20;;;;;;;;;;5114235;28;20523;-81
2023/05/01 01:06:48;;;;;;;34.53;18.57;;;;;;;;;;5113881;28;20062;-78
2023/05/01 01:09:46;;;;;;;37.22;19.85;;;;;;;;;;5114439;28;20030;-77
2023/05/01 01:12:31;;;;;;;36.97;18.47;;;;;;;;;;5109128;28;20042;-78
2023/05/01 01:15:22;;;;;;;38.80;20.10;;;;;;;;;;5112999;28;20050;-77
2023/05/01 01:18:06;;;;;;;41.67;21.40;;;;;;;;;;5115007;28;20092;-79
2023/05/01 01:21:00;;;;;;;37.77;20.80;;;;;;;;;;5114863;28;20024;-78
2023/05/01 01:23:58;;;;;;;35.67;20.20;;;;;;;;;;5115030;28;20080;-77
2023/05/01 01:26:50;;;;;;;35.37;19.57;;;;;;;;;;5112521;28;20030;-79
2023/05/01 01:29:40;;;;;;;46.05;21.55;;;;;;;;;;5113653;28;20023;-80
2023/05/01 01:32:30;;;;;;;39.53;21.00;;;;;;;;;;5113240;28;20438;-78
2023/05/01 01:35:02;;;;;;;38.83;22.17;;;;;;;;;;5112816;28;20023;-79
2023/05/01 01:37:28;;;;;;;;;;;;;;;;;;5113881;28;20031;-79
2023/05/01 01:40:04;;;;;;;42.40;23.00;;;;;;;;;;5114395;28;19908;-78
2023/05/01 01:42:37;;;;;;;46.73;24.00;;;;;;;;;;5112984;28;20020;-78
2023/05/01 01:45:10;;;;;;;38.53;22.90;;;;;;;;;;5112669;28;20546;-78
2023/05/01 01:47:55;;;;;;;41.47;23.37;;;;;;;;;;5111241;27;20434;-77
2023/05/01 01:50:24;;;;;;;42.77;24.10;;;;;;;;;;5111853;28;20495;-77
2023/05/01 01:52:52;;;;;;;41.83;22.67;;;;;;;;;;5111277;28;20097;-78
2023/05/01 01:55:23;;;;;;;40.03;22.90;;;;;;;;;;5109404;28;20106;-79
2023/05/01 01:57:50;;;;;;;41.70;23.73;;;;;;;;;;5109504;28;20020;-80
2023/05/01 02:00:17;;;;;;;39.03;23.23;;;;;;;;;;5110038;28;20429;-78
2023/05/01 02:02:45;;;;;;;43.60;22.60;;;;;;;;;;5111200;28;20028;-79
2023/05/01 02:05:15;;;;;;;45.93;24.73;;;;;;;;;;5093516;28;20428;-80
2023/05/01 02:07:44;;;;;;;48.97;26.90;;;;;;;;;;5111446;28;20129;-78
2023/05/01 02:10:12;;;;;;;46.23;26.13;;;;;;;;;;5110137;28;20067;-80
2023/05/01 02:12:41;;;;;;;44.87;25.67;;;;;;;;;;5111552;28;20149;-78
2023/05/01 02:15:09;;;;;;;47.53;25.60;;;;;;;;;;5111126;28;20059;-80
2023/05/01 02:17:36;;;;;;;44.27;25.47;;;;;;;;;;5111924;28;20431;-78
2023/05/01 02:20:05;;;;;;;46.17;25.63;;;;;;;;;;5111751;28;20525;-79
2023/05/01 02:22:32;;;;;;;49.57;27.73;;;;;;;;;;5110897;28;20024;-78
2023/05/01 02:24:59;;;;;;;45.97;25.43;;;;;;;;;;5110924;28;20016;-78
2023/05/01 02:27:56;;;;;;;49.00;25.77;;;;;;;;;;5109977;28;20054;-78
2023/05/01 02:30:22;;;;;;;49.17;27.33;;;;;;;;;;5110722;28;20024;-78
2023/05/01 02:32:47;;;;;;;49.83;25.90;;;;;;;;;;5110820;28;20479;-78
2023/05/01 02:35:13;;;;;;;48.90;25.77;;;;;;;;;;5109756;28;20034;-78
2023/05/01 02:37:39;;;;;;;46.90;24.60;;;;;;;;;;5111149;28;20035;-79
2023/05/01 02:40:06;;;;;;;47.40;25.03;;;;;;;;;;5110008;28;20638;-77
2023/05/01 02:42:34;;;;;;;40.97;25.00;;;;;;;;;;5110237;28;20028;-78
2023/05/01 02:45:03;;;;;;;44.23;24.97;;;;;;;;;;5110342;28;20034;-78
2023/05/01 02:47:32;;;;;;;44.57;25.20;;;;;;;;;;5109396;28;20101;-78
2023/05/01 02:49:59;;;;;;;44.53;25.17;;;;;;;;;;5110840;28;20107;-78
2023/05/01 02:52:25;;;;;;;46.93;25.50;;;;;;;;;;5109520;28;20036;-78
2023/05/01 02:54:51;;;;;;;51.27;26.63;;;;;;;;;;5110333;28;20027;-78
2023/05/01 02:57:19;;;;;;;47.03;25.07;;;;;;;;;;5106440;28;20024;-79
2023/05/01 02:59:44;;;;;;;46.07;27.23;;;;;;;;;;5096491;28;20074;-78
2023/05/01 03:02:10;;;;;;;43.07;26.37;;;;;;;;;;5095105;28;20024;-78
2023/05/01 03:04:36;;;;;;;46.73;27.70;;;;;;;;;;5095663;28;20044;-78
2023/05/01 03:07:03;;;;;;;52.00;30.33;;;;;;;;;;5113208;28;20026;-77
2023/05/01 03:09:32;;;;;;;47.43;29.27;;;;;;;;;;5116992;28;20057;-78
2023/05/01 03:11:57;;;;;;;52.83;29.57;;;;;;;;;;5115250;28;20023;-79
2023/05/01 03:14:24;;;;;;;59.77;29.50;;;;;;;;;;5115041;28;20027;-78
2023/05/01 03:16:49;;;;;;;53.83;29.37;;;;;;;;;;5115245;28;20022;-78
2023/05/01 03:19:15;;;;;;;51.47;29.77;;;;;;;;;;5114821;28;20035;-77
2023/05/01 03:21:40;;;;;;;50.00;28.20;;;;;;;;;;5116971;28;20034;-78
2023/05/01 03:24:06;;;;;;;53.67;30.37;;;;;;;;;;5115300;28;20051;-78
2023/05/01 03:26:32;;;;;;;50.93;29.57;;;;;;;;;;5115030;28;20024;-78
2023/05/01 03:28:58;;;;;;;48.67;28.77;;;;;;;;;;5098190;28;20027;-78
2023/05/01 03:31:23;;;;;;;51.90;29.00;;;;;;;;;;5098374;28;20378;-78
2023/05/01 03:33:49;;;;;;;50.37;28.67;;;;;;;;;;5114635;28;20039;-78
2023/05/01 03:36:15;;;;;;;50.90;29.07;;;;;;;;;;5115039;28;20016;-77
2023/05/01 03:38:41;;;;;;;51.70;27.90;;;;;;;;;;5114941;28;20499;-79
2023/05/01 03:41:07;;;;;;;52.73;29.53;;;;;;;;;;5116666;27;20105;-78
2023/05/01 03:43:33;;;;;;;49.57;27.93;;;;;;;;;;5116507;28;20396;-77
2023/05/01 03:45:58;;;;;;;52.33;27.57;;;;;;;;;;5116146;28;20043;-78
2023/05/01 03:48:24;;;;;;;58.03;27.17;;;;;;;;;;5115779;28;20596;-79
2023/05/01 03:50:50;;;;;;;44.70;27.50;;;;;;;;;;5117181;28;20371;-79
2023/05/01 03:53:16;;;;;;;49.93;28.17;;;;;;;;;;5116367;28;20015;-77
2023/05/01 03:55:43;;;;;;;53.00;28.80;;;;;;;;;;5117102;28;20031;-77
2023/05/01 03:58:11;;;;;;;47.53;28.83;;;;;;;;;;5117315;28;20054;-77
2023/05/01 04:00:37;;;;;;;46.53;27.50;;;;;;;;;;5118015;28;20023;-78
2023/05/01 04:03:04;;;;;;;48.80;28.30;;;;;;;;;;5116714;28;20085;-77
2023/05/01 04:05:30;;;;;;;49.67;28.43;;;;;;;;;;5116572;28;20027;-78
2023/05/01 04:07:56;;;;;;;55.47;29.93;;;;;;;;;;5115682;28;20023;-78
2023/05/01 04:10:22;;;;;;;44.27;27.10;;;;;;;;;;5114288;28;20058;-78
2023/05/01 04:12:47;;;;;;;49.00;28.60;;;;;;;;;;5116152;28;20019;-78
2023/05/01 04:15:13;;;;;;;51.47;29.63;;;;;;;;;;5115885;28;20032;-79
2023/05/01 04:17:39;;;;;;;56.03;31.03;;;;;;;;;;5114552;28;20494;-78
2023/05/01 04:20:05;;;;;;;46.83;28.50;;;;;;;;;;5115692;28;20026;-79
2023/05/01 04:22:32;;;;;;;47.20;28.27;;;;;;;;;;5113584;28;20106;-79
2023/05/01 04:24:58;;;;;;;55.30;30.50;;;;;;;;;;5114077;28;20403;-79
2023/05/01 04:27:23;;;;;;;56.20;30.63;;;;;;;;;;5114111;28;20035;-79
2023/05/01 04:29:50;;;;;;;56.00;31.60;;;;;;;;;;5115377;28;20503;-79
2023/05/01 04:32:16;;;;;;;47.57;29.63;;;;;;;;;;5113473;28;20433;-78
2023/05/01 04:34:42;;;;;;;49.33;29.97;;;;;;;;;;5097186;28;20066;-78
2023/05/01 04:37:08;;;;;;;54.93;30.67;;;;;;;;;;5115387;28;20069;-79
2023/05/01 04:39:35;;;;;;;54.47;30.53;;;;;;;;;;5113933;28;20039;-81
2023/05/01 04:42:01;;;;;;;59.57;30.20;;;;;;;;;;5115748;28;20414;-81
2023/05/01 04:44:27;;;;;;;49.30;29.90;;;;;;;;;;5115695;28;20357;-79
2023/05/01 04:46:53;;;;;;;47.60;31.00;;;;;;;;;;5114305;28;20054;-79
2023/05/01 04:49:20;;;;;;;52.53;28.73;;;;;;;;;;5114105;28;20020;-78
2023/05/01 04:51:46;;;;;;;48.93;29.00;;;;;;;;;;5113112;28;20028;-80
2023/05/01 04:54:11;;;;;;;55.30;31.57;;;;;;;;;;5113694;28;20027;-78
2023/05/01 04:56:37;;;;;;;62.37;30.27;;;;;;;;;;5115079;28;20015;-78
2023/05/01 04:59:03;;;;;;;54.00;30.97;;;;;;;;;;5114753;28;20094;-79
2023/05/01 05:01:28;;;;;;;52.23;31.33;;;;;;;;;;5114895;28;20041;-79
2023/05/01 05:03:54;;;;;;;51.07;30.83;;;;;;;;;;5115814;28;20450;-78
2023/05/01 05:06:20;;;;;;;51.17;29.97;;;;;;;;;;5113319;28;20030;-78
2023/05/01 05:08:46;;;;;;;56.33;30.43;;;;;;;;;;5114627;28;20026;-79
2023/05/01 05:11:11;;;;;;;56.53;30.10;;;;;;;;;;5114587;28;20052;-77
2023/05/01 05:13:37;;;;;;;57.03;31.50;;;;;;;;;;5113538;28;20031;-78
2023/05/01 05:16:02;;;;;;;51.83;31.70;;;;;;;;;;5113395;28;20045;-78
2023/05/01 05:18:28;;;;;;;52.37;29.43;;;;;;;;;;5113028;28;20558;-79
2023/05/01 05:20:54;;;;;;;57.70;29.60;;;;;;;;;;5114707;28;20015;-77
2023/05/01 05:23:20;;;;;;;52.80;31.30;;;;;;;;;;5115067;28;20478;-79
2023/05/01 05:25:46;;;;;;;52.17;30.90;;;;;;;;;;5112946;28;20023;-80
2023/05/01 05:28:12;;;;;;;56.57;31.33;;;;;;;;;;5114264;28;20036;-78
2023/05/01 05:30:38;;;;;;;62.33;31.53;;;;;;;;;;5114065;28;20123;-79
2023/05/01 05:33:07;;;;;;;55.53;30.60;;;;;;;;;;5113036;28;20055;-79
2023/05/01 05:35:33;;;;;;;54.13;31.07;;;;;;;;;;5114521;28;20030;-80
2023/05/01 05:37:58;;;;;;;58.33;31.40;;;;;;;;;;5115455;28;20024;-79
2023/05/01 05:40:24;;;;;;;57.43;29.27;;;;;;;;;;5114113;28;20027;-78
2023/05/01 05:42:49;;;;;;;58.67;30.37;;;;;;;;;;5113862;28;20043;-79
2023/05/01 05:45:15;;;;;;;52.53;29.73;;;;;;;;;;5113868;28;20507;-79
2023/05/01 05:47:41;;;;;;;52.77;31.17;;;;;;;;;;5115422;28;20043;-79
2023/05/01 05:50:07;;;;;;;58.57;29.67;;;;;;;;;;5113686;28;20024;-79
2023/05/01 05:52:33;;;;;;;44.80;28.13;;;;;;;;;;5114559;28;20035;-80
2023/05/01 05:54:58;;;;;;;49.30;28.70;;;;;;;;;;5113318;28;20028;-80
2023/05/01 05:57:24;;;;;;;46.43;26.77;;;;;;;;;;5113226;28;20102;-78
2023/05/01 05:59:50;;;;;;;49.50;26.50;;;;;;;;;;5114269;28;20032;-79
2023/05/01 06:02:16;;;;;;;45.20;25.83;;;;;;;;;;5119107;28;20053;-78
2023/05/01 06:04:42;;;;;;;44.77;24.67;;;;;;;;;;5097187;28;20088;-80
2023/05/01 06:07:07;;;;;;;44.90;24.33;;;;;;;;;;5112534;28;20019;-80
2023/05/01 06:09:33;;;;;;;47.00;25.17;;;;;;;;;;5111392;28;20048;-80
2023/05/01 06:11:58;;;;;;;44.60;24.97;;;;;;;;;;5112671;28;20027;-80
2023/05/01 06:14:24;;;;;;;43.20;25.50;;;;;;;;;;5111596;28;20059;-81
2023/05/01 06:16:50;;;;;;;47.37;23.50;;;;;;;;;;5111425;28;20031;-81
2023/05/01 06:19:17;;;;;;;40.17;22.67;;;;;;;;;;5113121;28;20031;-79
2023/05/01 06:21:42;;;;;;;50.87;24.00;;;;;;;;;;5112446;28;20114;-80
2023/05/01 06:24:08;;;;;;;42.83;25.63;;;;;;;;;;5112455;28;20380;-81
2023/05/01 06:26:34;;;;;;;39.43;22.23;;;;;;;;;;5111572;28;20026;-81
2023/05/01 06:28:59;;;;;;;32.75;18.48;;;;;;;;;;5112392;28;20482;-79
2023/05/01 06:31:25;;;;;;;43.50;21.30;;;;;;;;;;5111468;28;20125;-82
2023/05/01 06:33:51;;;;;;;32.67;18.98;;;;;;;;;;5113766;28;20438;-79
2023/05/01 06:36:17;;;;;;;26.85;14.73;;;;;;;;;;5115715;28;20108;-80
2023/05/01 06:38:47;;;;;;;34.42;17.40;;;;;;;;;;5115835;28;20028;-81
2023/05/01 06:41:14;;;;;;;29.83;18.23;;;;;;;;;;5116986;28;20039;-81
2023/05/01 06:43:39;;;;;;;22.75;12.98;;;;;;;;;;5115434;28;20114;-81
2023/05/01 06:46:05;;;;;;;23.48;13.18;;;;;;;;;;5116316;28;20126;-80
2023/05/01 06:48:31;;;;;;;23.55;14.02;;;;;;;;;;5114786;28;20379;-80
2023/05/01 06:50:56;;;;;;;21.27;11.93;;;;;;;;;;5115963;28;20436;-80
2023/05/01 06:53:22;;;;;;;24.73;11.60;;;;;;;;;;5116726;28;20629;-81
2023/05/01 06:55:47;;;;;;;20.58;13.50;;;;;;;;;;5114963;28;20047;-81
2023/05/01 06:58:13;;;;;;;20.02;13.43;;;;;;;;;;5116861;28;20032;-82
2023/05/01 07:00:39;;;;;;;22.05;12.35;;;;;;;;;;5117182;28;20099;-81
2023/05/01 07:03:04;;;;;;;24.33;12.80;;;;;;;;;;5117282;28;20517;-81
2023/05/01 07:05:30;;;;;;;24.13;14.45;;;;;;;;;;5115597;28;20031;-81
2023/05/01 07:07:55;;;;;;;23.45;13.15;;;;;;;;;;5114222;28;20016;-80
2023/05/01 07:10:21;;;;;;;22.13;12.77;;;;;;;;;;5114670;28;20032;-81
2023/05/01 07:12:46;;;;;;;22.52;12.98;;;;;;;;;;5116838;28;20027;-81
2023/05/01 07:15:15;;;;;;;18.33;12.25;;;;;;;;;;5117249;28;20106;-81
2023/05/01 07:17:40;;;;;;;21.63;12.10;;;;;;;;;;5115813;27;20016;-81
2023/05/01 07:20:06;;;;;;;23.42;12.65;;;;;;;;;;5115781;28;20031;-80
2023/05/01 07:22:32;;;;;;;29.05;13.18;;;;;;;;;;5115508;28;20111;-80
2023/05/01 07:25:00;;;;;;;20.05;13.88;;;;;;;;;;5113882;28;20461;-81
2023/05/01 07:27:25;;;;;;;21.27;11.55;;;;;;;;;;5115204;28;20023;-79
2023/05/01 07:29:54;;;;;;;22.88;10.77;;;;;;;;;;5115467;28;20384;-81
2023/05/01 07:32:20;;;;;;;19.67;10.73;;;;;;;;;;5115242;28;20023;-82
2023/05/01 07:34:45;;;;;;;17.05;10.43;;;;;;;;;;5118417;28;20026;-79
2023/05/01 07:37:11;;;;;;;18.65;9.88;;;;;;;;;;5115475;28;20039;-80
2023/05/01 07:39:37;;;;;;;17.30;9.90;;;;;;;;;;5115654;27;20026;-80
2023/05/01 07:42:02;;;;;;;13.27;9.30;;;;;;;;;;5114179;28;20027;-81
2023/05/01 07:44:28;;;;;;;16.75;9.45;;;;;;;;;;5115563;28;20051;-80
2023/05/01 07:46:54;;;;;;;16.85;8.32;;;;;;;;;;5112928;28;20040;-80
2023/05/01 07:49:19;;;;;;;17.42;7.90;;;;;;;;;;5113663;28;20031;-80
2023/05/01 07:51:45;;;;;;;12.50;7.55;;;;;;;;;;5115011;28;20016;-80
2023/05/01 07:54:13;;;;;;;13.68;7.03;;;;;;;;;;5112070;28;20101;-81
2023/05/01 07:56:39;;;;;;;12.88;5.55;;;;;;;;;;5114028;28;20081;-79
2023/05/01 07:59:05;;;;;;;10.15;5.30;;;;;;;;;;5115397;28;20077;-80
2023/05/01 08:01:32;;;;;;;19.13;6.25;;;;;;;;;;5114426;28;20027;-82
2023/05/01 08:03:58;;;;;;;13.73;7.22;;;;;;;;;;5115306;28;20110;-80
2023/05/01 08:06:24;;;;;;;13.05;7.97;;;;;;;;;;5115179;28;20028;-79
2023/05/01 08:08:50;;;;;;;16.52;7.40;;;;;;;;;;5113488;28;20165;-79
2023/05/01 08:11:15;;;;;;;14.05;7.20;;;;;;;;;;5115360;28;20035;-80
2023/05/01 08:13:44;;;;;;;16.63;9.07;;;;;;;;;;5113201;28;20023;-80
2023/05/01 08:16:09;;;;;;;12.98;7.95;;;;;;;;;;5114744;28;20043;-81
2023/05/01 08:18:35;;;;;;;10.20;7.35;;;;;;;;;;5113069;28;20433;-81
2023/05/01 08:21:03;;;;;;;13.02;7.43;;;;;;;;;;5114826;28;20062;-82
2023/05/01 08:23:29;;;;;;;13.18;7.55;;;;;;;;;;5115499;28;20028;-80
2023/05/01 08:25:54;;;;;;;17.90;8.70;;;;;;;;;;5116268;28;20027;-80
2023/05/01 08:28:22;;;;;;;16.95;8.68;;;;;;;;;;5114442;28;20447;-81
2023/05/01 08:30:50;;;;;;;14.73;8.02;;;;;;;;;;5113944;28;20072;-81
2023/05/01 08:33:16;;;;;;;12.63;9.00;;;;;;;;;;5115503;28;20277;-83
2023/05/01 08:35:42;;;;;;;20.42;9.05;;;;;;;;;;5114425;28;20091;-81
2023/05/01 08:38:07;;;;;;;16.90;8.23;;;;;;;;;;5115684;28;20498;-82
2023/05/01 08:40:36;;;;;;;13.13;7.60;;;;;;;;;;5115067;28;20031;-80
2023/05/01 08:43:02;;;;;;;15.52;8.02;;;;;;;;;;5113686;28;20035;-81
2023/05/01 08:45:30;;;;;;;12.80;6.95;;;;;;;;;;5113289;28;20414;-83
2023/05/01 08:47:58;;;;;;;12.73;8.07;;;;;;;;;;5113825;28;20106;-81
2023/05/01 08:50:26;;;;;;;15.32;8.05;;;;;;;;;;5115277;28;20045;-81
2023/05/01 08:52:52;;;;;;;15.93;7.90;;;;;;;;;;5113759;28;20102;-80
2023/05/01 08:55:18;;;;;;;12.98;8.02;;;;;;;;;;5112563;28;20122;-78
2023/05/01 08:57:45;;;;;;;12.70;8.13;;;;;;;;;;5115341;28;20027;-80
2023/05/01 09:00:20;;;;;;;15.32;8.95;;;;;;;;;;5115179;28;20088;-80
2023/05/01 09:02:47;;;;;;;14.63;8.55;;;;;;;;;;5113705;28;20023;-80
2023/05/01 09:05:17;;;;;;;15.63;8.70;;;;;;;;;;5113373;28;20051;-81
2023/05/01 09:07:44;;;;;;;17.77;8.48;;;;;;;;;;5113002;28;20020;-81
2023/05/01 09:10:16;;;;;;;14.55;7.35;;;;;;;;;;5114258;28;20049;-81
2023/05/01 09:12:45;;;;;;;18.17;9.10;;;;;;;;;;5114902;28;20293;-80
2023/05/01 09:15:11;;;;;;;14.90;8.70;;;;;;;;;;5114642;28;20051;-80
2023/05/01 09:17:37;;;;;;;11.40;7.15;;;;;;;;;;5114404;28;20095;-79
2023/05/01 09:20:06;;;;;;;12.13;6.63;;;;;;;;;;5112975;28;20454;-81
2023/05/01 09:22:35;;;;;;;12.02;6.97;;;;;;;;;;5112758;28;20030;-81
2023/05/01 09:25:02;;;;;;;13.50;6.80;;;;;;;;;;5113685;28;20025;-81
2023/05/01 09:27:32;;;;;;;12.98;6.38;;;;;;;;;;5114479;28;20019;-79
2023/05/01 09:29:58;;;;;;;20.02;7.38;;;;;;;;;;5112369;28;20080;-80
2023/05/01 09:32:28;;;;;;;12.77;6.75;;;;;;;;;;5114543;28;20378;-81
2023/05/01 09:35:07;;;;;;;19.65;9.80;;;;;;;;;;5113476;28;20023;-80
2023/05/01 09:37:35;;;;;;;14.05;6.13;;;;;;;;;;5112550;28;20356;-82
2023/05/01 09:40:11;;;;;;;13.50;7.90;;;;;;;;;;5113359;28;20023;-81
2023/05/01 09:42:48;;;;;;;14.18;6.78;;;;;;;;;;5112582;28;20049;-81
2023/05/01 09:45:14;;;;;;;11.77;6.65;;;;;;;;;;5112421;28;20034;-80
2023/05/01 09:47:42;;;;;;;12.95;6.07;;;;;;;;;;5114345;28;20412;-80
2023/05/01 09:50:09;;;;;;;15.88;6.07;;;;;;;;;;5112288;28;20028;-80
2023/05/01 09:52:35;;;;;;;12.52;7.00;;;;;;;;;;5111859;28;20028;-81
2023/05/01 09:55:15;;;;;;;10.68;6.65;;;;;;;;;;5113952;28;20428;-80
2023/05/01 09:57:42;;;;;;;10.55;6.18;;;;;;;;;;5112831;28;20081;-81
2023/05/01 10:00:11;;;;;;;12.43;7.00;;;;;;;;;;5114739;28;20044;-83
2023/05/01 10:02:37;;;;;;;14.00;6.82;;;;;;;;;;5095914;28;20031;-81
2023/05/01 10:05:03;;;;;;;15.38;6.53;;;;;;;;;;5112826;28;20031;-79
2023/05/01 10:07:29;;;;;;;9.35;6.28;;;;;;;;;;5112014;28;20057;-80
2023/05/01 10:09:55;;;;;;;10.50;6.57;;;;;;;;;;5116050;28;20023;-80
2023/05/01 10:12:29;;;;;;;14.15;6.63;;;;;;;;;;5117414;28;20027;-79
2023/05/01 10:14:57;;;;;;;11.40;6.50;;;;;;;;;;5117706;28;20483;-79
2023/05/01 10:17:23;;;;;;;15.07;6.90;;;;;;;;;;5115885;28;20034;-79
2023/05/01 10:19:53;;;;;;;7.78;4.95;;;;;;;;;;5117795;28;20015;-79
2023/05/01 10:22:19;;;;;;;8.35;5.05;;;;;;;;;;5099609;28;20241;-81
2023/05/01 10:24:45;;;;;;;8.00;5.10;;;;;;;;;;5117501;28;20526;-80
2023/05/01 10:27:12;;;;;;;11.38;6.32;;;;;;;;;;5116774;28;20086;-79
2023/05/01 10:29:41;;;;;;;13.10;5.82;;;;;;;;;;5116477;27;20055;-83
2023/05/01 10:32:07;;;;;;;11.60;5.45;;;;;;;;;;5117097;28;20022;-80
2023/05/01 10:34:49;;;;;;;8.23;5.10;;;;;;;;;;5099186;28;20027;-81
2023/05/01 10:37:21;;;;;;;14.52;6.78;;;;;;;;;;5113321;28;20023;-81
2023/05/01 10:39:47;;;;;;;7.75;4.20;;;;;;;;;;5116463;28;20073;-80
2023/05/01 10:42:13;;;;;;;9.93;4.95;;;;;;;;;;5115966;28;20027;-82
2023/05/01 10:44:41;;;;;;;9.95;4.65;;;;;;;;;;5114709;28;20030;-81
2023/05/01 10:47:30;;;;;;;9.15;4.10;;;;;;;;;;5115060;28;20180;-81
2023/05/01 10:50:09;;;;;;;9.88;4.80;;;;;;;;;;5116387;28;20066;-80
2023/05/01 10:53:13;;;;;;;15.60;5.43;;;;;;;;;;5115185;28;20028;-81
2023/05/01 10:55:43;;;;;;;9.55;4.63;;;;;;;;;;5115546;28;20360;-81
2023/05/01 10:58:12;;;;;;;9.38;4.60;;;;;;;;;;5115680;28;20024;-80
2023/05/01 11:00:38;;;;;;;10.10;5.05;;;;;;;;;;5115482;28;20551;-81
2023/05/01 11:03:25;;;;;;;9.27;4.65;;;;;;;;;;5116236;28;20031;-80
2023/05/01 11:06:01;;;;;;;9.98;4.30;;;;;;;;;;5116007;28;20412;-78
2023/05/01 11:08:30;;;;;;;7.53;4.50;;;;;;;;;;5115809;28;20471;-80
2023/05/01 11:10:56;;;;;;;6.30;4.30;;;;;;;;;;5115616;28;20031;-80
2023/05/01 11:14:02;;;;;;;10.68;5.55;;;;;;;;;;5098003;28;20139;-80
2023/05/01 11:16:36;;;;;;;8.20;4.38;;;;;;;;;;5112498;28;20045;-82
2023/05/01 11:19:39;;;;;;;6.78;4.70;;;;;;;;;;5115722;28;20495;-79
2023/05/01 11:22:12;;;;;;;12.00;4.47;;;;;;;;;;5115227;28;20062;-81
2023/05/01 11:24:38;;;;;;;8.20;4.13;;;;;;;;;;5115242;28;20030;-82
2023/05/01 11:27:03;;;;;;;8.70;3.40;;;;;;;;;;5114623;28;20031;-79
2023/05/01 11:29:32;;;;;;;6.05;3.35;;;;;;;;;;5114031;28;20027;-80
2023/05/01 11:31:59;;;;;;;7.10;4.20;;;;;;;;;;5113951;28;20054;-80
2023/05/01 11:34:25;;;;;;;5.75;3.22;;;;;;;;;;5115179;28;20553;-81
2023/05/01 11:36:52;;;;;;;4.85;3.40;;;;;;;;;;5113909;28;20398;-80
2023/05/01 11:39:18;;;;;;;10.27;3.20;;;;;;;;;;5114203;28;20020;-78
2023/05/01 11:41:44;;;;;;;10.00;6.47;;;;;;;;;;5114411;28;20039;-80
2023/05/01 11:44:17;;;;;;;9.48;4.55;;;;;;;;;;5114068;28;20024;-81
2023/05/01 11:46:42;;;;;;;9.38;3.60;;;;;;;;;;5113430;28;20055;-80
2023/05/01 11:49:10;;;;;;;10.70;3.17;;;;;;;;;;5114911;28;20024;-81
2023/05/01 11:51:36;;;;;;;6.88;3.65;;;;;;;;;;5113349;28;20175;-80
2023/05/01 11:54:06;;;;;;;5.82;3.05;;;;;;;;;;5113379;28;20123;-81
2023/05/01 11:56:33;;;;;;;4.25;2.60;;;;;;;;;;5114126;28;20121;-81
2023/05/01 11:59:07;;;;;;;6.47;3.10;;;;;;;;;;5115032;28;20463;-80
2023/05/01 12:01:34;;;;;;;6.07;2.67;;;;;;;;;;5114700;28;20027;-81
2023/05/01 12:04:04;;;;;;;6.18;2.80;;;;;;;;;;5114956;28;20039;-80
2023/05/01 12:06:44;;;;;;;7.63;3.63;;;;;;;;;;5096257;28;20395;-80
2023/05/01 12:09:17;;;;;;;8.52;2.70;;;;;;;;;;5114357;28;20081;-80
2023/05/01 12:11:45;;;;;;;6.32;3.22;;;;;;;;;;5113553;27;20499;-85
2023/05/01 12:14:11;;;;;;;6.22;3.30;;;;;;;;;;5113729;28;20059;-80
2023/05/01 12:16:39;;;;;;;4.32;3.40;;;;;;;;;;5114315;28;20024;-81
2023/05/01 12:19:05;;;;;;;5.15;4.07;;;;;;;;;;5114502;28;20390;-79
2023/05/01 12:21:31;;;;;;;8.52;3.92;;;;;;;;;;5113302;28;20479;-79
2023/05/01 12:24:06;;;;;;;5.47;3.15;;;;;;;;;;5112347;28;20042;-81
2023/05/01 12:26:32;;;;;;;10.27;4.13;;;;;;;;;;5114104;28;20060;-80
2023/05/01 12:29:06;;;;;;;7.45;3.63;;;;;;;;;;5114933;28;20023;-80
2023/05/01 12:31:32;;;;;;;8.57;3.28;;;;;;;;;;5112157;28;20341;-80
2023/05/01 12:34:05;;;;;;;4.72;2.63;;;;;;;;;;5112648;28;20126;-79
2023/05/01 12:36:34;;;;;;;7.68;3.33;;;;;;;;;;5112021;28;20084;-79
2023/05/01 12:39:03;;;;;;;10.65;6.25;;;;;;;;;;5113932;28;20020;-81
2023/05/01 12:41:45;;;;;;;14.80;9.93;;;;;;;;;;5112230;28;20152;-81
2023/05/01 12:44:19;;;;;;;5.10;2.90;;;;;;;;;;5112206;28;20062;-79
2023/05/01 12:46:52;;;;;;;4.72;3.72;;;;;;;;;;5112458;28;20490;-80
2023/05/01 12:49:19;;;;;;;5.18;2.80;;;;;;;;;;5113445;28;20023;-79
2023/05/01 12:51:49;;;;;;;3.38;2.60;;;;;;;;;;5112398;28;20031;-79
2023/05/01 12:54:22;;;;;;;7.90;3.10;;;;;;;;;;5113845;28;20034;-79
2023/05/01 12:56:53;;;;;;;5.65;2.90;;;;;;;;;;5114044;28;20038;-82
2023/05/01 12:59:21;;;;;;;11.95;7.50;;;;;;;;;;5112270;28;20035;-79
2023/05/01 13:01:48;;;;;;;3.35;2.20;;;;;;;;;;5112895;28;20106;-81
2023/05/01 13:04:21;;;;;;;6.88;2.95;;;;;;;;;;5113296;28;20407;-81
2023/05/01 13:06:48;;;;;;;7.03;2.13;;;;;;;;;;5113083;28;20319;-81
2023/05/01 13:09:15;;;;;;;4.43;2.13;;;;;;;;;;5113527;28;20422;-79
2023/05/01 13:11:41;;;;;;;10.77;2.38;;;;;;;;;;5113508;28;20054;-81
2023/05/01 13:14:07;;;;;;;2.20;1.80;;;;;;;;;;5112799;28;20059;-80
2023/05/01 13:16:33;;;;;;;7.88;2.40;;;;;;;;;;5111857;28;20467;-82
2023/05/01 13:19:00;;;;;;;4.00;2.33;;;;;;;;;;5111907;28;20020;-80
2023/05/01 13:21:26;;;;;;;6.38;2.10;;;;;;;;;;5112055;28;20023;-81
2023/05/01 13:23:55;;;;;;;3.00;2.35;;;;;;;;;;5111830;28;20080;-79
2023/05/01 13:26:27;;;;;;;4.07;2.38;;;;;;;;;;5111369;28;20103;-80
2023/05/01 13:28:54;;;;;;;4.18;2.30;;;;;;;;;;5112887;28;20019;-80
2023/05/01 13:31:19;;;;;;;6.22;2.47;;;;;;;;;;5111025;28;20057;-80
2023/05/01 13:33:48;;;;;;;5.53;2.25;;;;;;;;;;5111770;28;20044;-79
2023/05/01 13:36:14;;;;;;;2.60;2.30;;;;;;;;;;5110737;28;20104;-80
2023/05/01 13:38:45;;;;;;;2.88;2.35;;;;;;;;;;5111168;28;20399;-79
2023/05/01 13:41:22;;;;;;;4.35;2.38;;;;;;;;;;5111273;28;20391;-81
2023/05/01 13:43:48;;;;;;;6.25;2.72;;;;;;;;;;5095127;28;20570;-81
2023/05/01 13:46:16;;;;;;;3.25;2.10;;;;;;;;;;5110802;28;20752;-80
2023/05/01 13:48:42;;;;;;;8.52;2.60;;;;;;;;;;5112282;28;20023;-81
2023/05/01 13:51:10;;;;;;;7.38;3.08;;;;;;;;;;5096234;28;20542;-80
2023/05/01 13:53:37;;;;;;;3.33;2.65;;;;;;;;;;5111745;28;20024;-78
2023/05/01 13:56:05;;;;;;;5.30;2.42;;;;;;;;;;5114230;28;20395;-81
2023/05/01 13:58:32;;;;;;;3.45;2.35;;;;;;;;;;5112516;28;20307;-81
2023/05/01 14:01:00;;;;;;;5.15;2.40;;;;;;;;;;5111950;28;20016;-80
2023/05/01 14:03:26;;;;;;;2.35;1.90;;;;;;;;;;5111732;28;20497;-81
2023/05/01 14:05:51;;;;;;;3.85;2.10;;;;;;;;;;5111000;28;20031;-80
2023/05/01 14:08:22;;;;;;;7.32;2.90;;;;;;;;;;5111528;28;20028;-81
2023/05/01 14:10:48;;;;;;;;;;;;;;;;;;5112838;28;20304;-80
2023/05/01 14:13:18;;;;;;;6.72;2.67;;;;;;;;;;5110620;28;19946;-80
2023/05/01 14:15:44;;;;;;;2.53;2.28;;;;;;;;;;5112597;28;20031;-79
2023/05/01 14:18:16;;;;;;;5.03;2.65;;;;;;;;;;5113094;28;20046;-79
2023/05/01 14:20:46;;;;;;;6.70;2.63;;;;;;;;;;5111880;28;20040;-79
2023/05/01 14:23:15;;;;;;;3.03;2.05;;;;;;;;;;5110181;28;20089;-79
2023/05/01 14:25:44;;;;;;;4.13;2.30;;;;;;;;;;5112199;28;20100;-79
2023/05/01 14:28:11;;;;;;;5.82;2.28;;;;;;;;;;5112079;28;20072;-80
2023/05/01 14:30:38;;;;;;;3.78;2.08;;;;;;;;;;5110195;28;20353;-79
2023/05/01 14:33:11;;;;;;;2.88;2.33;;;;;;;;;;5110437;28;20482;-78